createdAt,value
2023-03-29T00:03:05.600Z,95.53
2023-03-29T00:06:32.073Z,95.94
2023-03-29T00:09:57.076Z,96.40
2023-03-29T00:13:24.490Z,96.79
2023-03-29T00:16:49.052Z,96.94
2023-03-29T00:20:14.751Z,97.07
2023-03-29T00:23:39.069Z,96.97
2023-03-29T00:27:03.802Z,98.27
2023-03-29T00:30:30.040Z,99.96
2023-03-29T00:33:53.611Z,100.00
2023-03-29T00:37:16.991Z,100.00
2023-03-29T00:40:47.419Z,100.00
2023-03-29T00:44:45.607Z,100.00
2023-03-29T00:48:12.890Z,100.00
2023-03-29T00:51:40.846Z,100.00
2023-03-29T00:55:08.615Z,100.00
2023-03-29T00:58:38.030Z,100.00
2023-03-29T01:02:06.020Z,100.00
2023-03-29T01:05:35.429Z,100.00
2023-03-29T01:09:02.679Z,100.00
2023-03-29T01:12:31.782Z,100.00
2023-03-29T01:15:56.946Z,100.00
2023-03-29T01:19:27.022Z,100.00
2023-03-29T01:23:09.032Z,100.00
2023-03-29T01:26:43.046Z,100.00
2023-03-29T01:30:15.840Z,100.00
2023-03-29T01:33:45.251Z,100.00
2023-03-29T01:37:16.901Z,100.00
2023-03-29T01:40:42.389Z,100.00
2023-03-29T01:44:09.794Z,100.00
2023-03-29T01:47:41.804Z,100.00
2023-03-29T01:51:09.917Z,100.00
2023-03-29T01:54:39.921Z,100.00
2023-03-29T01:58:05.703Z,100.00
2023-03-29T02:01:34.188Z,100.00
2023-03-29T02:05:01.140Z,100.00
2023-03-29T02:08:25.840Z,100.00
2023-03-29T02:11:51.156Z,100.00
2023-03-29T02:15:16.921Z,100.00
2023-03-29T02:18:41.294Z,100.00
2023-03-29T02:22:12.427Z,100.00
2023-03-29T02:25:38.260Z,100.00
2023-03-29T02:29:01.891Z,100.00
2023-03-29T02:32:33.399Z,100.00
2023-03-29T02:36:02.543Z,100.00
2023-03-29T02:39:30.059Z,100.00
2023-03-29T02:42:53.923Z,100.00
2023-03-29T02:46:21.003Z,100.00
2023-03-29T02:49:45.831Z,100.00
2023-03-29T02:53:14.301Z,100.00
2023-03-29T02:56:47.124Z,100.00
2023-03-29T03:00:12.963Z,100.00
2023-03-29T03:03:36.709Z,100.00
2023-03-29T03:07:00.387Z,100.00
2023-03-29T03:10:24.021Z,100.00
2023-03-29T03:13:48.748Z,100.00
2023-03-29T03:17:12.125Z,100.00
2023-03-29T03:20:35.992Z,100.00
2023-03-29T03:23:59.878Z,100.00
2023-03-29T03:27:24.991Z,100.00
2023-03-29T03:30:52.660Z,100.00
2023-03-29T03:34:15.820Z,100.00
2023-03-29T03:37:41.138Z,100.00
2023-03-29T03:41:05.586Z,100.00
2023-03-29T03:44:29.819Z,100.00
2023-03-29T03:47:56.321Z,100.00
2023-03-29T03:51:19.631Z,100.00
2023-03-29T03:54:44.005Z,100.00
2023-03-29T03:58:08.835Z,100.00
2023-03-29T04:01:32.706Z,100.00
2023-03-29T04:04:57.817Z,100.00
2023-03-29T04:08:22.929Z,100.00
2023-03-29T04:11:47.832Z,100.00
2023-03-29T04:15:13.021Z,100.00
2023-03-29T04:18:37.170Z,100.00
2023-03-29T04:22:02.252Z,100.00
2023-03-29T04:25:25.926Z,100.00
2023-03-29T04:28:49.702Z,100.00
2023-03-29T04:32:12.871Z,100.00
2023-03-29T04:35:36.077Z,100.00
2023-03-29T04:39:03.192Z,100.00
2023-03-29T04:42:26.871Z,100.00
2023-03-29T04:45:50.137Z,100.00
2023-03-29T04:49:14.074Z,100.00
2023-03-29T04:52:38.822Z,99.73
2023-03-29T04:56:04.057Z,99.87
2023-03-29T04:59:28.242Z,100.00
2023-03-29T05:02:51.408Z,100.00
2023-03-29T05:06:14.549Z,99.99
2023-03-29T05:09:39.064Z,99.39
2023-03-29T05:13:04.978Z,99.53
2023-03-29T05:16:31.094Z,98.70
2023-03-29T05:19:55.307Z,98.42
2023-03-29T05:23:19.902Z,98.18
2023-03-29T05:26:43.688Z,98.12
2023-03-29T05:30:09.713Z,98.06
2023-03-29T05:33:34.088Z,97.44
2023-03-29T05:37:00.032Z,96.91
2023-03-29T05:40:26.470Z,96.71
2023-03-29T05:43:49.550Z,96.43
2023-03-29T05:47:14.031Z,96.08
2023-03-29T05:50:39.244Z,95.66
2023-03-29T05:54:02.823Z,95.30
2023-03-29T05:57:26.326Z,95.26
2023-03-29T06:00:50.664Z,94.67
2023-03-29T06:04:15.961Z,94.09
2023-03-29T06:07:40.704Z,93.91
2023-03-29T06:11:06.479Z,94.12
2023-03-29T06:14:30.411Z,93.85
2023-03-29T06:17:53.599Z,92.92
2023-03-29T06:21:19.504Z,92.00
2023-03-29T06:24:43.284Z,91.28
2023-03-29T06:28:07.102Z,92.06
2023-03-29T06:31:31.985Z,91.57
2023-03-29T06:34:57.116Z,90.35
2023-03-29T06:38:23.221Z,90.32
2023-03-29T06:41:46.995Z,88.90
2023-03-29T06:45:12.001Z,88.66
2023-03-29T06:48:36.112Z,89.35
2023-03-29T06:52:01.004Z,89.54
2023-03-29T06:55:28.783Z,88.58
2023-03-29T06:58:52.242Z,87.08
2023-03-29T07:02:18.383Z,87.70
2023-03-29T07:05:43.282Z,86.68
2023-03-29T07:09:07.433Z,84.58
2023-03-29T07:12:33.291Z,84.48
2023-03-29T07:15:56.791Z,84.26
2023-03-29T07:19:20.125Z,81.19
2023-03-29T07:22:44.345Z,80.48
2023-03-29T07:26:10.452Z,82.21
2023-03-29T07:29:37.309Z,82.02
2023-03-29T07:33:00.379Z,79.91
2023-03-29T07:36:24.869Z,78.84
2023-03-29T07:39:49.131Z,79.32
2023-03-29T07:43:14.167Z,79.54
2023-03-29T07:46:40.464Z,78.19
2023-03-29T07:50:05.616Z,79.73
2023-03-29T07:53:30.417Z,78.14
2023-03-29T07:56:55.863Z,77.30
2023-03-29T08:00:21.295Z,76.99
2023-03-29T08:03:48.495Z,77.54
2023-03-29T08:07:13.490Z,76.69
2023-03-29T08:10:37.457Z,76.26
2023-03-29T08:14:03.438Z,75.74
2023-03-29T08:17:28.152Z,75.69
2023-03-29T08:20:55.465Z,75.35
2023-03-29T08:24:20.912Z,74.59
2023-03-29T08:27:46.342Z,74.41
2023-03-29T08:31:12.611Z,74.02
2023-03-29T08:34:37.275Z,73.10
2023-03-29T08:38:04.433Z,73.18
2023-03-29T08:41:40.604Z,72.67
2023-03-29T08:45:12.267Z,73.78
2023-03-29T08:48:43.164Z,73.97
2023-03-29T08:52:18.466Z,73.29
2023-03-29T08:55:48.691Z,73.52
2023-03-29T08:59:22.626Z,74.15
2023-03-29T09:02:48.680Z,73.76
2023-03-29T09:06:15.599Z,73.11
2023-03-29T09:09:42.252Z,74.08
2023-03-29T09:13:32.725Z,74.95
2023-03-29T09:17:04.105Z,73.36
2023-03-29T09:20:42.326Z,73.29
2023-03-29T09:24:24.644Z,72.83
2023-03-29T09:27:57.634Z,72.77
2023-03-29T09:31:29.778Z,72.51
2023-03-29T09:35:05.217Z,69.85
2023-03-29T09:38:33.346Z,70.45
2023-03-29T09:42:04.386Z,69.66
2023-03-29T09:45:31.697Z,67.79
2023-03-29T09:49:00.034Z,66.55
2023-03-29T09:52:25.351Z,66.68
2023-03-29T09:55:52.430Z,66.16
2023-03-29T09:59:17.520Z,67.55
2023-03-29T10:02:42.877Z,67.15
2023-03-29T10:06:12.751Z,66.83
2023-03-29T10:09:38.375Z,67.78
2023-03-29T10:13:07.379Z,67.92
2023-03-29T10:16:34.898Z,67.69
2023-03-29T10:20:04.251Z,68.28
2023-03-29T10:23:35.414Z,68.63
2023-03-29T10:27:03.400Z,68.82
2023-03-29T10:30:30.445Z,68.20
2023-03-29T10:33:58.432Z,66.72
2023-03-29T10:37:24.863Z,65.17
2023-03-29T10:40:53.471Z,65.91
2023-03-29T10:44:34.231Z,64.10
2023-03-29T10:48:00.700Z,63.77
2023-03-29T10:51:28.366Z,63.10
2023-03-29T10:54:56.591Z,63.44
2023-03-29T10:58:35.262Z,61.31
2023-03-29T11:02:32.488Z,59.25
2023-03-29T11:06:05.418Z,59.53
2023-03-29T11:09:46.402Z,61.48
2023-03-29T11:13:20.415Z,59.19
2023-03-29T11:16:54.640Z,58.89
2023-03-29T11:20:30.398Z,60.51
2023-03-29T11:24:25.221Z,58.20
2023-03-29T11:28:00.658Z,57.52
2023-03-29T11:31:37.985Z,56.66
2023-03-29T11:35:22.234Z,56.20
2023-03-29T11:38:58.695Z,55.26
2023-03-29T11:42:28.511Z,56.14
2023-03-29T11:45:57.517Z,54.65
2023-03-29T11:49:28.358Z,54.24
2023-03-29T11:53:00.597Z,53.27
2023-03-29T11:56:31.725Z,53.65
2023-03-29T12:00:05.458Z,54.81
2023-03-29T12:03:44.756Z,54.20
2023-03-29T12:07:20.714Z,53.35
2023-03-29T12:10:55.444Z,52.56
2023-03-29T12:14:26.059Z,53.10
2023-03-29T12:18:03.471Z,53.44
2023-03-29T12:21:32.686Z,52.43
2023-03-29T12:24:59.464Z,50.40
2023-03-29T12:28:57.416Z,49.26
2023-03-29T12:33:00.599Z,50.13
2023-03-29T12:36:48.981Z,51.04
2023-03-29T12:40:18.388Z,50.31
2023-03-29T12:43:45.754Z,49.79
2023-03-29T12:47:21.258Z,48.71
2023-03-29T12:50:50.523Z,47.26
2023-03-29T12:54:20.439Z,47.17
2023-03-29T12:57:48.446Z,48.92
2023-03-29T13:01:29.121Z,49.39
2023-03-29T13:04:58.438Z,49.04
2023-03-29T13:08:31.195Z,48.90
2023-03-29T13:11:57.538Z,49.10
2023-03-29T13:15:28.384Z,50.15
2023-03-29T13:19:21.436Z,49.33
2023-03-29T13:22:59.456Z,49.31
2023-03-29T13:26:35.728Z,49.93
2023-03-29T13:30:23.778Z,50.09
2023-03-29T13:34:00.461Z,48.31
2023-03-29T13:37:40.728Z,49.32
2023-03-29T13:41:08.187Z,48.78
2023-03-29T13:44:46.416Z,47.78
2023-03-29T13:48:29.791Z,49.54
2023-03-29T13:52:10.434Z,48.46
2023-03-29T13:55:44.779Z,48.63
2023-03-29T13:59:17.741Z,48.86
2023-03-29T14:02:49.668Z,48.69
2023-03-29T14:06:18.816Z,49.28
2023-03-29T14:09:47.006Z,48.46
2023-03-29T14:13:16.722Z,49.14
2023-03-29T14:16:44.263Z,46.64
2023-03-29T14:20:13.799Z,47.78
2023-03-29T14:23:42.697Z,47.99
2023-03-29T14:27:10.672Z,49.58
2023-03-29T14:30:37.023Z,50.35
2023-03-29T14:34:04.478Z,50.43
2023-03-29T14:37:32.781Z,49.74
2023-03-29T14:41:02.922Z,48.78
2023-03-29T14:44:32.313Z,50.42
2023-03-29T14:47:58.777Z,49.51
2023-03-29T14:51:28.260Z,49.53
2023-03-29T14:54:57.770Z,49.83
2023-03-29T14:58:25.655Z,49.71
2023-03-29T15:01:51.014Z,48.87
2023-03-29T15:05:39.647Z,48.70
2023-03-29T15:09:07.086Z,49.29
2023-03-29T15:12:34.657Z,50.14
2023-03-29T15:16:05.145Z,49.66
2023-03-29T15:19:32.660Z,50.40
2023-03-29T15:23:04.642Z,51.04
2023-03-29T15:26:32.929Z,51.66
2023-03-29T15:30:04.735Z,51.02
2023-03-29T15:33:38.664Z,50.37
2023-03-29T15:37:04.829Z,50.35
2023-03-29T15:40:30.629Z,50.54
2023-03-29T15:43:55.471Z,50.52
2023-03-29T15:47:18.838Z,51.10
2023-03-29T15:50:42.825Z,51.23
2023-03-29T15:54:08.552Z,52.35
2023-03-29T15:57:34.576Z,52.44
2023-03-29T16:01:03.410Z,52.56
2023-03-29T16:04:30.435Z,51.47
2023-03-29T16:07:55.472Z,51.58
2023-03-29T16:11:18.811Z,52.27
2023-03-29T16:14:46.203Z,52.52
2023-03-29T16:18:11.918Z,52.87
2023-03-29T16:21:38.467Z,53.20
2023-03-29T16:25:06.116Z,53.30
2023-03-29T16:28:30.523Z,53.12
2023-03-29T16:31:57.745Z,53.61
2023-03-29T16:35:28.515Z,54.49
2023-03-29T16:38:52.512Z,53.84
2023-03-29T16:42:19.240Z,54.48
2023-03-29T16:45:43.176Z,55.18
2023-03-29T16:49:09.676Z,55.78
2023-03-29T16:52:34.468Z,56.34
2023-03-29T16:55:59.785Z,56.28
2023-03-29T16:59:26.025Z,56.77
2023-03-29T17:02:51.687Z,56.92
2023-03-29T17:06:18.600Z,57.29
2023-03-29T17:09:42.782Z,57.63
2023-03-29T17:13:08.510Z,57.62
2023-03-29T17:16:33.556Z,57.63
2023-03-29T17:20:00.200Z,57.37
2023-03-29T17:23:25.685Z,57.60
2023-03-29T17:26:49.771Z,58.36
2023-03-29T17:30:17.640Z,58.67
2023-03-29T17:33:42.753Z,58.88
2023-03-29T17:37:06.638Z,58.83
2023-03-29T17:40:34.105Z,59.40
2023-03-29T17:43:58.701Z,59.85
2023-03-29T17:47:22.687Z,60.00
2023-03-29T17:50:47.794Z,60.07
2023-03-29T17:54:13.523Z,60.88
2023-03-29T17:57:40.580Z,61.23
2023-03-29T18:01:11.415Z,61.29
2023-03-29T18:04:36.026Z,61.28
2023-03-29T18:08:00.717Z,61.67
2023-03-29T18:11:26.652Z,62.35
2023-03-29T18:14:52.988Z,62.74
2023-03-29T18:18:18.713Z,63.64
2023-03-29T18:21:43.629Z,63.84
2023-03-29T18:25:09.855Z,63.98
2023-03-29T18:28:34.663Z,64.04
2023-03-29T18:32:03.768Z,64.04
2023-03-29T18:35:28.694Z,64.72
2023-03-29T18:38:54.505Z,64.51
2023-03-29T18:42:18.687Z,64.52
2023-03-29T18:45:43.711Z,64.60
2023-03-29T18:49:10.556Z,65.11
2023-03-29T18:52:34.656Z,64.97
2023-03-29T18:55:59.647Z,65.42
2023-03-29T18:59:23.632Z,65.82
2023-03-29T19:02:48.816Z,65.99
2023-03-29T19:06:16.713Z,66.38
2023-03-29T19:09:42.033Z,66.72
2023-03-29T19:13:08.168Z,66.92
2023-03-29T19:16:32.566Z,67.27
2023-03-29T19:19:57.057Z,67.31
2023-03-29T19:23:23.120Z,67.46
2023-03-29T19:26:49.262Z,67.50
2023-03-29T19:30:13.722Z,68.01
2023-03-29T19:33:38.762Z,68.17
2023-03-29T19:37:03.432Z,68.68
2023-03-29T19:40:28.635Z,68.66
2023-03-29T19:43:54.565Z,69.60
2023-03-29T19:47:18.553Z,69.09
2023-03-29T19:50:44.297Z,69.47
2023-03-29T19:54:09.107Z,69.51
2023-03-29T19:57:35.786Z,69.69
2023-03-29T20:01:00.931Z,70.13
2023-03-29T20:04:26.821Z,70.72
2023-03-29T20:07:50.541Z,70.82
2023-03-29T20:11:16.161Z,70.83
2023-03-29T20:14:43.935Z,71.05
2023-03-29T20:18:08.997Z,70.94
2023-03-29T20:21:34.564Z,71.93
2023-03-29T20:24:58.560Z,71.83
2023-03-29T20:28:22.385Z,72.21
2023-03-29T20:31:48.584Z,71.80
2023-03-29T20:35:13.573Z,72.61
2023-03-29T20:38:39.101Z,73.24
2023-03-29T20:42:04.714Z,73.25
2023-03-29T20:45:28.968Z,73.66
2023-03-29T20:48:55.767Z,73.85
2023-03-29T20:52:21.792Z,73.97
2023-03-29T20:55:47.001Z,74.14
2023-03-29T20:59:13.749Z,74.63
2023-03-29T21:02:38.913Z,75.04
2023-03-29T21:06:04.584Z,75.55
2023-03-29T21:09:28.770Z,75.53
2023-03-29T21:12:55.013Z,75.86
2023-03-29T21:17:27.832Z,76.54
2023-03-29T21:20:53.020Z,76.54
2023-03-29T21:24:18.823Z,76.42
2023-03-29T21:27:43.726Z,77.09
2023-03-29T21:31:07.926Z,76.94
2023-03-29T21:34:32.235Z,77.85
2023-03-29T21:37:56.951Z,77.25
2023-03-29T21:41:24.400Z,76.88
2023-03-29T21:44:50.032Z,77.75
2023-03-29T21:48:14.119Z,78.39
2023-03-29T21:51:39.117Z,77.79
2023-03-29T21:55:02.974Z,78.63
2023-03-29T21:58:28.888Z,78.65
2023-03-29T22:01:53.887Z,78.77
2023-03-29T22:05:19.198Z,78.97
2023-03-29T22:08:45.592Z,79.21
2023-03-29T22:12:10.624Z,79.56
2023-03-29T22:15:37.920Z,79.95
2023-03-29T22:19:02.256Z,79.89
2023-03-29T22:22:26.453Z,79.72
2023-03-29T22:25:51.008Z,80.71
2023-03-29T22:29:15.142Z,80.51
2023-03-29T22:32:40.779Z,80.65
2023-03-29T22:36:14.605Z,80.79
2023-03-29T22:39:39.885Z,80.74
2023-03-29T22:43:05.428Z,81.61
2023-03-29T22:46:30.645Z,81.41
2023-03-29T22:49:56.846Z,81.72
2023-03-29T22:53:20.938Z,81.83
2023-03-29T22:56:44.946Z,82.74
2023-03-29T23:00:10.950Z,82.52
2023-03-29T23:03:36.065Z,82.90
2023-03-29T23:07:02.707Z,83.44
2023-03-29T23:10:31.610Z,83.23
2023-03-29T23:13:55.897Z,83.26
2023-03-29T23:17:20.190Z,83.10
2023-03-29T23:20:44.888Z,83.42
2023-03-29T23:24:10.621Z,83.16
2023-03-29T23:27:34.083Z,83.51
2023-03-29T23:30:59.108Z,83.23
2023-03-29T23:34:22.881Z,83.32
2023-03-29T23:37:50.349Z,83.41
2023-03-29T23:41:18.320Z,83.16
2023-03-29T23:44:42.211Z,84.14
2023-03-29T23:48:06.822Z,83.89
2023-03-29T23:51:30.445Z,84.12
2023-03-29T23:54:55.077Z,83.75
2023-03-29T23:58:21.207Z,84.27
